Tibooburra, Australia
Current Conditions -  °F | °C
As of 6:00 PM on Friday 28 Nov 2014 (Local Time) from YBHI Reporting Station
Clear Clear  
Wind Chill: 90°   Ceiling: Unl
Heat Index: 90°   Visibility: 6mi
Dew Point: 25°   Wind: 5mph
Humidity: 10%   Direction: 70°ENE
Pressure: 29.94"   Gusts: NA
Location:  29.43°S, 142.01°E
Report Text: YBHI 280700Z AUTO 07004KT 360V150 9999 // NCD 32/M04 Q1014
Loading
Personal Weather Stations






























Interactive Weather Map New forecast layout! Learn more

10-Day Weather Forecast

Advertisements
Track Severe Weather on mobile